Time;durP1;ratioP1;P1;durP2;ratioP2;P2;SDS_P1;SDS_P2;PMS_P1;PMS_P2;Temp;Humidity;BMP_temperature;BMP_pressure;BME280_temperature;BME280_humidity;BME280_pressure;Samples;Min_cycle;Max_cycle;Signal;HPM_P1;HPM_P2
2023/09/28 00:03:42;;;;;;;4.25;3.83;;;13.00;99.90;;;;;;6197164;28;20042;-79
2023/09/28 00:06:44;;;;;;;6.25;3.20;;;12.90;99.90;;;;;;6204854;28;20046;-78
2023/09/28 00:09:46;;;;;;;5.95;3.95;;;12.90;99.90;;;;;;6201319;28;20043;-78
2023/09/28 00:12:49;;;;;;;3.33;3.03;;;12.90;99.90;;;;;;6196494;28;20054;-77
2023/09/28 00:15:51;;;;;;;3.83;3.42;;;12.90;99.90;;;;;;6196259;28;20046;-76
2023/09/28 00:18:52;;;;;;;3.85;3.17;;;12.90;99.90;;;;;;6196253;28;20038;-76
2023/09/28 00:21:55;;;;;;;4.68;3.80;;;12.90;99.90;;;;;;6202435;28;20034;-76
2023/09/28 00:24:56;;;;;;;5.78;3.80;;;12.90;99.90;;;;;;6194184;28;20408;-76
2023/09/28 00:27:58;;;;;;;5.93;3.50;;;13.00;99.90;;;;;;6197423;28;20047;-75
2023/09/28 00:31:01;;;;;;;6.22;3.67;;;13.00;99.90;;;;;;6212624;28;20055;-75
2023/09/28 00:34:02;;;;;;;4.30;3.88;;;13.00;99.90;;;;;;6195510;28;20051;-76
2023/09/28 00:37:05;;;;;;;4.57;4.18;;;12.90;99.90;;;;;;6194820;28;20088;-76
2023/09/28 00:40:16;;;;;;;3.88;3.55;;;13.00;99.90;;;;;;6196458;28;20054;-75
2023/09/28 00:43:25;;;;;;;4.95;3.95;;;13.00;99.90;;;;;;6197721;28;20145;-79
2023/09/28 00:46:33;;;;;;;6.15;3.80;;;13.10;99.90;;;;;;6196202;28;20054;-76
2023/09/28 00:49:38;;;;;;;8.40;3.50;;;13.10;99.90;;;;;;6195693;28;20396;-75
2023/09/28 00:52:42;;;;;;;6.28;3.47;;;13.10;99.90;;;;;;6197224;28;20077;-78
2023/09/28 00:55:45;;;;;;;5.82;3.63;;;13.20;99.90;;;;;;6195802;28;20042;-77
2023/09/28 00:58:50;;;;;;;4.03;3.10;;;13.20;99.90;;;;;;6195600;28;20133;-77
2023/09/28 01:01:53;;;;;;;4.68;3.90;;;13.20;99.90;;;;;;6195880;28;20134;-77
2023/09/28 01:04:54;;;;;;;3.38;2.78;;;13.10;99.90;;;;;;6195295;28;20058;-77
2023/09/28 01:08:05;;;;;;;4.50;3.90;;;13.10;99.90;;;;;;6196024;28;20428;-77
2023/09/28 01:11:07;;;;;;;12.10;3.78;;;13.10;99.90;;;;;;6195701;28;20307;-77
2023/09/28 01:14:09;;;;;;;3.45;3.15;;;13.10;99.90;;;;;;6196093;28;20522;-76
2023/09/28 01:17:10;;;;;;;4.00;3.60;;;13.10;99.90;;;;;;6199456;28;20411;-77
2023/09/28 01:20:18;;;;;;;4.03;3.63;;;13.10;99.90;;;;;;6199982;28;20049;-77
2023/09/28 01:23:20;;;;;;;6.18;3.83;;;13.10;99.90;;;;;;6199745;28;20629;-77
2023/09/28 01:26:22;;;;;;;4.60;4.05;;;13.10;99.90;;;;;;6191228;28;20512;-78
2023/09/28 01:29:23;;;;;;;3.63;3.33;;;13.20;99.90;;;;;;6199600;28;20038;-77
2023/09/28 01:32:24;;;;;;;4.15;3.80;;;13.20;99.90;;;;;;6200052;28;20061;-77
2023/09/28 01:35:28;;;;;;;8.45;4.13;;;13.30;99.90;;;;;;6198853;28;20046;-77
2023/09/28 01:38:36;;;;;;;13.73;3.88;;;13.30;99.90;;;;;;6199575;28;20499;-77
2023/09/28 01:41:38;;;;;;;4.60;3.83;;;13.20;99.90;;;;;;6199276;28;20484;-77
2023/09/28 01:44:38;;;;;;;7.65;4.10;;;13.30;99.90;;;;;;6199530;28;20050;-77
2023/09/28 01:47:40;;;;;;;7.05;4.45;;;13.20;99.90;;;;;;6199122;28;20046;-77
2023/09/28 01:50:42;;;;;;;7.10;4.10;;;13.20;99.90;;;;;;6199015;28;20042;-77
2023/09/28 01:53:46;;;;;;;5.35;4.85;;;13.20;99.90;;;;;;6197209;28;20397;-77
2023/09/28 01:56:47;;;;;;;8.88;3.97;;;13.20;99.90;;;;;;6207098;28;20507;-77
2023/09/28 01:59:48;;;;;;;5.07;3.53;;;13.20;99.90;;;;;;6210863;28;20415;-77
2023/09/28 02:02:54;;;;;;;4.97;3.78;;;13.20;99.90;;;;;;6223504;28;20038;-77
2023/09/28 02:05:56;;;;;;;5.18;4.68;;;13.20;99.90;;;;;;6223124;28;20050;-77
2023/09/28 02:08:58;;;;;;;3.78;3.17;;;13.10;99.90;;;;;;6214873;28;20054;-77
2023/09/28 02:12:03;;;;;;;5.25;3.70;;;13.10;99.90;;;;;;6223483;28;20112;-77
2023/09/28 02:15:05;;;;;;;3.90;3.60;;;13.10;99.90;;;;;;6222257;28;20042;-77
2023/09/28 02:18:06;;;;;;;6.43;4.43;;;13.10;99.90;;;;;;6216598;28;20042;-78
2023/09/28 02:21:14;;;;;;;4.40;3.53;;;13.10;99.90;;;;;;6183873;28;20054;-77
2023/09/28 02:24:17;;;;;;;4.50;3.75;;;13.20;99.90;;;;;;6213441;28;20580;-77
2023/09/28 02:27:17;;;;;;;4.10;3.70;;;13.20;99.90;;;;;;6214759;28;20050;-76
2023/09/28 02:30:22;;;;;;;4.78;3.63;;;13.30;99.90;;;;;;6222518;28;20053;-77
2023/09/28 02:33:24;;;;;;;4.88;4.38;;;13.30;99.90;;;;;;6213977;28;20053;-77
2023/09/28 02:36:32;;;;;;;6.03;4.57;;;13.30;99.90;;;;;;6206777;28;20099;-76
2023/09/28 02:39:36;;;;;;;6.25;4.30;;;13.40;99.90;;;;;;6212455;28;20053;-76
2023/09/28 02:42:37;;;;;;;5.80;4.43;;;13.40;99.90;;;;;;6208595;28;20061;-76
2023/09/28 02:45:39;;;;;;;7.15;4.20;;;13.50;99.90;;;;;;6209045;28;20034;-76
2023/09/28 02:48:41;;;;;;;6.30;4.28;;;13.50;99.90;;;;;;6203918;28;20518;-77
2023/09/28 02:51:43;;;;;;;4.15;3.80;;;13.60;99.90;;;;;;6213730;28;20045;-77
2023/09/28 02:54:46;;;;;;;7.18;4.97;;;13.70;99.90;;;;;;6221547;28;20060;-77
2023/09/28 02:57:49;;;;;;;5.38;4.40;;;13.70;99.90;;;;;;6221935;28;20050;-76
2023/09/28 03:00:51;;;;;;;9.45;4.97;;;13.80;99.90;;;;;;6222499;28;20042;-77
2023/09/28 03:03:53;;;;;;;6.82;4.95;;;13.90;99.90;;;;;;6213396;28;20649;-76
2023/09/28 03:06:55;;;;;;;4.60;4.18;;;13.90;99.90;;;;;;6204053;28;20061;-78
2023/09/28 03:09:58;;;;;;;4.60;4.18;;;14.00;99.90;;;;;;6216800;28;20050;-77
2023/09/28 03:13:00;;;;;;;4.28;3.88;;;14.00;99.90;;;;;;6210469;28;20084;-77
2023/09/28 03:16:01;;;;;;;7.05;4.15;;;14.00;99.90;;;;;;6216933;28;20057;-76
2023/09/28 03:19:03;;;;;;;6.70;4.40;;;13.90;99.90;;;;;;6223314;22;20120;-77
2023/09/28 03:22:04;;;;;;;4.80;3.85;;;13.90;99.90;;;;;;6222336;28;20532;-77
2023/09/28 03:25:11;;;;;;;4.43;4.05;;;13.90;99.90;;;;;;6217945;28;20050;-77
2023/09/28 03:28:14;;;;;;;5.95;4.88;;;13.80;99.90;;;;;;6200077;28;20475;-78
2023/09/28 03:31:15;;;;;;;6.25;4.60;;;13.80;99.90;;;;;;6200684;28;20050;-78
2023/09/28 03:34:17;;;;;;;4.60;4.13;;;13.80;99.90;;;;;;6200014;28;20165;-78
2023/09/28 03:37:19;;;;;;;4.47;4.05;;;13.80;99.90;;;;;;6200123;28;20050;-78
2023/09/28 03:40:22;;;;;;;4.45;4.00;;;13.80;99.90;;;;;;6200840;28;20050;-78
2023/09/28 03:43:24;;;;;;;4.97;4.20;;;13.70;99.90;;;;;;6199913;28;20133;-78
2023/09/28 03:46:26;;;;;;;5.47;4.15;;;13.70;99.90;;;;;;6199358;28;20051;-78
2023/09/28 03:49:27;;;;;;;7.50;4.05;;;13.70;99.90;;;;;;6199654;28;20092;-78
2023/09/28 03:52:29;;;;;;;8.23;4.88;;;13.70;99.90;;;;;;6200129;28;20054;-78
2023/09/28 03:55:32;;;;;;;4.55;4.15;;;13.80;99.90;;;;;;6198906;28;20220;-78
2023/09/28 03:58:34;;;;;;;6.05;3.75;;;13.80;99.90;;;;;;6199717;28;20491;-78
2023/09/28 04:01:37;;;;;;;4.32;3.88;;;13.80;99.90;;;;;;6200139;28;20053;-78
2023/09/28 04:04:39;;;;;;;5.43;4.57;;;13.80;99.90;;;;;;6199200;28;20204;-78
2023/09/28 04:07:41;;;;;;;7.47;4.03;;;13.80;99.90;;;;;;6198597;28;20058;-77
2023/09/28 04:10:44;;;;;;;5.32;4.28;;;13.80;99.90;;;;;;6198893;28;20057;-78
2023/09/28 04:13:46;;;;;;;4.30;3.35;;;13.80;99.90;;;;;;6199132;28;20051;-78
2023/09/28 04:16:48;;;;;;;3.97;3.40;;;13.70;99.90;;;;;;6198092;28;20042;-78
2023/09/28 04:19:49;;;;;;;4.53;3.65;;;13.70;99.90;;;;;;6197816;28;20050;-78
2023/09/28 04:22:51;;;;;;;5.00;3.42;;;13.70;99.90;;;;;;6197201;28;20123;-77
2023/09/28 04:25:54;;;;;;;6.30;3.97;;;13.60;99.90;;;;;;6196428;28;20145;-77
2023/09/28 04:28:56;;;;;;;5.22;4.43;;;13.50;99.90;;;;;;6196830;28;20050;-77
2023/09/28 04:31:58;;;;;;;4.53;4.13;;;13.40;99.90;;;;;;6196549;28;20389;-77
2023/09/28 04:35:00;;;;;;;6.45;4.28;;;13.30;99.90;;;;;;6196154;28;20108;-77
2023/09/28 04:38:03;;;;;;;5.82;4.75;;;13.20;99.90;;;;;;6196744;28;20054;-77
2023/09/28 04:41:06;;;;;;;4.50;4.10;;;13.10;99.90;;;;;;6195799;28;20523;-77
2023/09/28 04:44:08;;;;;;;5.97;4.28;;;13.10;99.90;;;;;;6196772;28;20424;-77
2023/09/28 04:47:10;;;;;;;5.15;4.75;;;13.00;99.90;;;;;;6196042;28;20415;-76
2023/09/28 04:50:12;;;;;;;4.10;3.70;;;12.90;99.90;;;;;;6199821;28;20053;-78
2023/09/28 04:53:14;;;;;;;4.72;4.32;;;12.90;99.90;;;;;;6202171;28;20407;-77
2023/09/28 04:56:17;;;;;;;7.30;4.85;;;12.80;99.90;;;;;;6204928;28;20054;-78
2023/09/28 04:59:19;;;;;;;5.57;4.55;;;12.70;99.90;;;;;;6205486;28;20046;-78
2023/09/28 05:02:21;;;;;;;6.97;5.13;;;12.70;99.90;;;;;;6205319;28;20050;-78
2023/09/28 05:05:24;;;;;;;6.63;5.30;;;12.70;99.90;;;;;;6204878;28;20046;-78
2023/09/28 05:08:26;;;;;;;5.50;5.00;;;12.70;99.90;;;;;;6204818;28;20081;-78
2023/09/28 05:11:29;;;;;;;5.55;4.25;;;12.70;99.90;;;;;;6205291;28;20053;-78
2023/09/28 05:14:31;;;;;;;7.43;5.35;;;12.60;99.90;;;;;;6203916;28;20046;-78
2023/09/28 05:17:32;;;;;;;7.38;4.63;;;12.70;99.90;;;;;;6204306;28;20046;-78
2023/09/28 05:20:34;;;;;;;8.82;4.78;;;12.60;99.90;;;;;;6204325;28;20252;-78
2023/09/28 05:23:37;;;;;;;7.15;4.40;;;12.60;99.90;;;;;;6201800;28;20042;-78
2023/09/28 05:26:40;;;;;;;5.75;5.25;;;12.50;99.90;;;;;;6203397;28;20046;-78
2023/09/28 05:29:42;;;;;;;6.90;4.57;;;12.50;99.90;;;;;;6204174;28;20046;-78
2023/09/28 05:32:44;;;;;;;4.57;4.13;;;12.40;99.90;;;;;;6203114;28;20130;-77
2023/09/28 05:35:47;;;;;;;6.47;5.28;;;12.40;99.90;;;;;;6201962;28;20396;-78
2023/09/28 05:38:49;;;;;;;9.63;4.60;;;12.40;99.90;;;;;;6203298;28;20050;-77
2023/09/28 05:41:52;;;;;;;6.55;4.65;;;12.30;99.90;;;;;;6202489;28;20515;-77
2023/09/28 05:44:53;;;;;;;11.95;5.90;;;12.30;99.90;;;;;;6201784;28;20050;-78
2023/09/28 05:47:55;;;;;;;7.88;5.53;;;12.30;99.90;;;;;;6202996;28;20058;-77
2023/09/28 05:50:57;;;;;;;6.88;4.72;;;12.30;99.90;;;;;;6202118;28;20495;-77
2023/09/28 05:53:59;;;;;;;7.40;5.63;;;12.40;99.90;;;;;;6201719;28;20057;-77
2023/09/28 05:57:03;;;;;;;6.40;5.30;;;12.40;99.90;;;;;;6202300;28;20054;-77
2023/09/28 06:00:09;;;;;;;6.47;5.55;;;12.50;99.90;;;;;;6201554;28;20165;-78
2023/09/28 06:03:11;;;;;;;7.60;4.90;;;12.60;99.90;;;;;;6201138;28;20106;-78
2023/09/28 06:06:16;;;;;;;6.85;4.55;;;12.60;99.90;;;;;;6200719;28;20137;-78
2023/09/28 06:09:19;;;;;;;5.28;4.45;;;12.60;99.90;;;;;;6200686;28;20046;-78
2023/09/28 06:12:23;;;;;;;6.35;5.43;;;12.60;99.90;;;;;;6201613;28;20046;-78
2023/09/28 06:15:24;;;;;;;7.28;6.38;;;12.60;99.90;;;;;;6201204;28;20042;-78
2023/09/28 06:18:26;;;;;;;8.90;5.00;;;12.70;99.90;;;;;;6200968;28;20050;-78
2023/09/28 06:21:28;;;;;;;9.80;4.65;;;12.70;99.90;;;;;;6201608;28;20051;-78
2023/09/28 06:24:29;;;;;;;7.63;5.10;;;12.80;99.90;;;;;;6201295;28;20062;-78
2023/09/28 06:27:33;;;;;;;10.48;4.97;;;12.90;99.90;;;;;;6201545;28;20050;-77
2023/09/28 06:30:34;;;;;;;7.47;4.63;;;13.00;99.90;;;;;;6193512;28;20057;-78
2023/09/28 06:33:36;;;;;;;7.97;4.88;;;13.10;99.90;;;;;;6202193;28;20038;-78
2023/09/28 06:36:38;;;;;;;8.57;5.28;;;13.20;99.90;;;;;;6202415;28;20046;-78
2023/09/28 06:39:40;;;;;;;6.82;6.13;;;13.40;99.90;;;;;;6200737;28;20052;-78
2023/09/28 06:42:43;;;;;;;6.80;4.78;;;13.50;99.90;;;;;;6189062;28;20072;-78
2023/09/28 06:45:45;;;;;;;7.47;5.10;;;13.70;99.90;;;;;;6198624;28;20061;-78
2023/09/28 06:48:47;;;;;;;6.75;4.78;;;13.90;99.90;;;;;;6200540;28;20051;-78
2023/09/28 06:51:49;;;;;;;5.60;5.10;;;14.00;99.90;;;;;;6202047;28;20046;-79
2023/09/28 06:54:51;;;;;;;5.80;4.43;;;14.20;99.90;;;;;;6199938;28;20053;-77
2023/09/28 06:57:54;;;;;;;10.25;4.70;;;14.30;99.90;;;;;;6199830;28;20050;-78
2023/09/28 07:00:56;;;;;;;5.45;4.93;;;14.60;99.90;;;;;;6204090;28;20050;-78
2023/09/28 07:03:58;;;;;;;9.05;5.25;;;15.00;99.90;;;;;;6203832;28;20050;-79
2023/09/28 07:07:00;;;;;;;4.90;4.35;;;15.30;99.90;;;;;;6204822;28;20561;-78
2023/09/28 07:10:02;;;;;;;5.93;4.57;;;15.70;99.90;;;;;;6203513;28;20043;-78
2023/09/28 07:13:07;;;;;;;7.10;4.40;;;16.20;99.90;;;;;;6203268;28;20042;-77
2023/09/28 07:16:09;;;;;;;10.20;4.40;;;16.70;99.90;;;;;;6199564;28;20623;-77
2023/09/28 07:19:10;;;;;;;8.48;4.70;;;17.20;99.90;;;;;;6209869;28;20046;-77
2023/09/28 07:22:13;;;;;;;6.80;4.25;;;17.70;99.90;;;;;;6201072;28;20048;-77
2023/09/28 07:25:15;;;;;;;9.43;4.90;;;18.20;99.90;;;;;;6197896;28;20426;-75
2023/09/28 07:28:20;;;;;;;5.10;4.00;;;18.70;99.90;;;;;;6197444;28;20463;-75
2023/09/28 07:31:22;;;;;;;4.88;3.85;;;19.10;99.90;;;;;;6194833;28;20042;-76
2023/09/28 07:34:23;;;;;;;4.47;3.42;;;19.50;99.90;;;;;;6196406;28;20047;-76
2023/09/28 07:37:25;;;;;;;4.85;3.72;;;19.70;99.90;;;;;;6197536;28;20053;-77
2023/09/28 07:40:27;;;;;;;5.05;4.05;;;19.80;99.90;;;;;;6196324;28;20349;-77
2023/09/28 07:43:30;;;;;;;6.32;4.03;;;19.80;99.90;;;;;;6196844;28;20042;-77
2023/09/28 07:46:32;;;;;;;4.35;3.53;;;20.00;99.90;;;;;;6198713;28;20117;-78
2023/09/28 07:49:34;;;;;;;6.60;3.22;;;20.40;99.90;;;;;;6200033;28;20054;-76
2023/09/28 07:52:35;;;;;;;4.82;3.70;;;21.00;99.90;;;;;;6199232;28;20065;-76
2023/09/28 07:55:37;;;;;;;5.53;3.30;;;21.70;99.90;;;;;;6198977;28;20046;-77
2023/09/28 07:58:40;;;;;;;7.13;3.28;;;22.20;99.90;;;;;;6200626;28;20043;-77
2023/09/28 08:01:42;;;;;;;5.00;3.38;;;22.70;99.90;;;;;;6198689;28;20045;-77
2023/09/28 08:04:44;;;;;;;7.53;2.45;;;23.10;99.90;;;;;;6197449;28;20418;-79
2023/09/28 08:07:46;;;;;;;4.60;3.20;;;23.40;99.90;;;;;;6198615;28;20042;-76
2023/09/28 08:10:48;;;;;;;5.53;3.45;;;23.50;99.90;;;;;;6197206;28;20420;-76
2023/09/28 08:13:51;;;;;;;4.82;3.13;;;23.70;99.90;;;;;;6198462;28;20424;-76
2023/09/28 08:16:53;;;;;;;3.85;2.47;;;23.90;98.70;;;;;;6198739;28;20077;-78
2023/09/28 08:19:56;;;;;;;7.53;3.88;;;24.10;97.80;;;;;;6197968;28;20432;-77
2023/09/28 08:22:57;;;;;;;4.72;3.05;;;24.30;96.80;;;;;;6200721;28;20125;-77
2023/09/28 08:25:59;;;;;;;6.55;4.00;;;24.40;95.80;;;;;;6202104;28;20120;-79
2023/09/28 08:29:03;;;;;;;4.53;3.15;;;24.40;95.00;;;;;;6203164;28;20056;-77
2023/09/28 08:32:05;;;;;;;7.00;3.20;;;24.30;94.30;;;;;;6199668;28;20047;-77
2023/09/28 08:35:11;;;;;;;4.90;3.60;;;24.00;93.90;;;;;;6201183;28;20081;-77
2023/09/28 08:38:13;;;;;;;3.63;2.95;;;23.70;93.70;;;;;;6201757;28;20124;-77
2023/09/28 08:41:17;;;;;;;5.28;3.10;;;23.60;94.10;;;;;;6202329;28;20054;-76
2023/09/28 08:44:25;;;;;;;4.38;2.67;;;23.60;93.90;;;;;;6203099;28;20488;-77
2023/09/28 08:47:31;;;;;;;8.98;3.17;;;23.70;93.60;;;;;;6203721;28;20046;-77
2023/09/28 08:50:36;;;;;;;9.88;3.53;;;23.90;93.20;;;;;;6201876;28;20048;-77
2023/09/28 08:53:39;;;;;;;4.90;2.80;;;24.20;92.70;;;;;;6200490;28;20125;-77
2023/09/28 08:56:42;;;;;;;5.35;2.97;;;24.40;91.90;;;;;;6201500;28;20503;-76
2023/09/28 08:59:46;;;;;;;6.43;3.00;;;24.50;91.40;;;;;;6200707;28;20050;-77
2023/09/28 09:02:49;;;;;;;4.43;3.58;;;24.50;90.90;;;;;;6200717;28;20094;-77
2023/09/28 09:05:51;;;;;;;4.88;2.72;;;24.60;90.50;;;;;;6200574;28;20503;-77
2023/09/28 09:08:55;;;;;;;5.32;2.95;;;24.80;90.30;;;;;;6200091;28;20047;-76
2023/09/28 09:11:58;;;;;;;8.18;2.42;;;25.00;88.70;;;;;;6202225;28;20042;-77
2023/09/28 09:15:01;;;;;;;4.82;2.78;;;25.10;87.90;;;;;;6200423;28;20050;-77
2023/09/28 09:18:05;;;;;;;4.88;2.45;;;25.10;86.50;;;;;;6200781;28;20434;-76
2023/09/28 09:21:07;;;;;;;4.60;3.47;;;24.90;85.90;;;;;;6200198;28;20050;-77
2023/09/28 09:24:11;;;;;;;8.05;3.65;;;24.80;85.60;;;;;;6199826;28;20384;-76
2023/09/28 09:27:13;;;;;;;5.97;3.08;;;24.80;86.10;;;;;;6199395;28;20057;-77
2023/09/28 09:30:17;;;;;;;7.20;3.17;;;25.00;85.20;;;;;;6199608;28;20408;-76
2023/09/28 09:33:19;;;;;;;13.45;4.18;;;25.20;84.40;;;;;;6197141;28;20050;-77
2023/09/28 09:36:20;;;;;;;4.70;2.67;;;25.40;83.40;;;;;;6196050;28;20050;-76
2023/09/28 09:39:24;;;;;;;4.20;3.30;;;25.60;82.40;;;;;;6199448;28;20053;-76
2023/09/28 09:42:27;;;;;;;5.20;3.33;;;25.70;81.90;;;;;;6198993;28;20043;-77
2023/09/28 09:45:30;;;;;;;5.78;2.78;;;25.80;80.70;;;;;;6199215;28;20042;-76
2023/09/28 09:48:39;;;;;;;3.70;2.78;;;25.70;80.20;;;;;;6199834;28;20051;-77
2023/09/28 09:51:42;;;;;;;5.22;3.13;;;25.90;80.40;;;;;;6199138;28;20053;-77
2023/09/28 09:54:46;;;;;;;2.67;2.42;;;26.20;80.20;;;;;;6198543;28;20408;-76
2023/09/28 09:57:48;;;;;;;8.02;3.92;;;26.60;79.60;;;;;;6198818;28;20418;-76
2023/09/28 10:00:53;;;;;;;4.32;3.47;;;26.90;78.50;;;;;;6199674;28;20050;-77
2023/09/28 10:03:57;;;;;;;3.75;2.40;;;27.20;77.70;;;;;;6198694;28;20050;-77
2023/09/28 10:07:01;;;;;;;4.28;2.90;;;27.40;77.20;;;;;;6200117;28;20072;-76
2023/09/28 10:10:04;;;;;;;3.13;2.67;;;27.70;76.00;;;;;;6198875;28;20056;-77
2023/09/28 10:13:06;;;;;;;4.57;2.60;;;28.10;74.90;;;;;;6198756;28;20050;-76
2023/09/28 10:16:12;;;;;;;4.57;2.78;;;28.30;74.10;;;;;;6198892;28;20050;-74
2023/09/28 10:19:19;;;;;;;5.43;2.33;;;28.60;72.80;;;;;;6198429;28;20655;-76
2023/09/28 10:22:21;;;;;;;4.45;3.60;;;28.90;71.80;;;;;;6198353;28;20048;-76
2023/09/28 10:25:25;;;;;;;4.50;2.05;;;29.20;70.80;;;;;;6198145;28;20051;-76
2023/09/28 10:28:27;;;;;;;3.38;2.45;;;29.50;69.60;;;;;;6198519;28;20133;-77
2023/09/28 10:31:31;;;;;;;4.95;2.67;;;29.60;68.60;;;;;;6198393;28;20500;-76
2023/09/28 10:34:33;;;;;;;4.10;2.50;;;29.70;67.40;;;;;;6197286;28;20050;-77
2023/09/28 10:37:34;;;;;;;8.93;2.72;;;29.70;67.40;;;;;;6197058;28;20045;-76
2023/09/28 10:40:36;;;;;;;5.10;2.50;;;30.00;66.80;;;;;;6197670;28;20042;-76
2023/09/28 10:43:42;;;;;;;4.28;2.47;;;30.20;66.20;;;;;;6197740;28;20411;-76
2023/09/28 10:46:47;;;;;;;2.97;2.00;;;30.40;64.90;;;;;;6196113;28;20525;-76
2023/09/28 10:49:51;;;;;;;5.05;2.55;;;30.60;63.70;;;;;;6196174;28;20038;-76
2023/09/28 10:52:54;;;;;;;4.63;2.53;;;30.70;63.10;;;;;;6197280;28;20487;-76
2023/09/28 10:55:55;;;;;;;4.22;2.28;;;30.90;62.60;;;;;;6197690;28;20050;-76
2023/09/28 10:58:57;;;;;;;2.70;1.80;;;30.90;62.10;;;;;;6197694;28;20050;-76
2023/09/28 11:02:02;;;;;;;4.28;2.05;;;31.10;61.50;;;;;;6197370;28;20133;-76
2023/09/28 11:05:07;;;;;;;3.10;1.92;;;31.10;61.20;;;;;;6197233;28;20047;-77
2023/09/28 11:08:08;;;;;;;2.75;2.05;;;31.20;60.20;;;;;;6197650;28;20054;-76
2023/09/28 11:11:10;;;;;;;3.50;2.17;;;31.40;59.20;;;;;;6196946;28;20042;-76
2023/09/28 11:14:14;;;;;;;4.18;2.40;;;31.70;58.70;;;;;;6196948;28;20420;-77
2023/09/28 11:17:19;;;;;;;4.25;1.95;;;31.90;57.70;;;;;;6195440;28;20304;-75
2023/09/28 11:20:20;;;;;;;3.20;1.80;;;32.00;56.90;;;;;;6200453;28;20148;-77
2023/09/28 11:23:22;;;;;;;2.58;2.15;;;31.90;56.70;;;;;;6195033;28;20408;-77
2023/09/28 11:26:25;;;;;;;3.13;2.15;;;32.00;56.20;;;;;;6198723;28;20053;-77
2023/09/28 11:29:27;;;;;;;4.13;3.10;;;32.30;55.70;;;;;;6202385;28;20047;-76
2023/09/28 11:32:48;;;;;;;4.75;2.80;;;32.50;55.30;;;;;;6197479;28;20050;-77
2023/09/28 11:35:51;;;;;;;2.60;2.05;;;32.80;54.40;;;;;;6188270;28;20117;-77
2023/09/28 11:38:55;;;;;;;3.72;2.65;;;33.00;54.20;;;;;;6195284;28;20053;-77
2023/09/28 11:41:58;;;;;;;2.55;1.90;;;33.00;53.30;;;;;;6195858;28;20050;-77
2023/09/28 11:45:00;;;;;;;4.50;2.50;;;32.90;53.40;;;;;;6196600;28;20058;-76
2023/09/28 11:48:09;;;;;;;8.00;2.28;;;33.00;53.00;;;;;;6196912;28;20050;-76
2023/09/28 11:51:12;;;;;;;4.45;2.38;;;33.30;53.00;;;;;;6196603;28;20077;-77
2023/09/28 11:54:14;;;;;;;3.00;2.08;;;33.40;52.00;;;;;;6195946;28;20042;-75
2023/09/28 11:57:18;;;;;;;4.55;2.60;;;33.60;51.70;;;;;;6196737;28;20117;-77
2023/09/28 12:00:21;;;;;;;8.80;2.10;;;33.60;51.30;;;;;;6196690;28;20066;-76
2023/09/28 12:03:24;;;;;;;3.33;1.98;;;33.50;51.40;;;;;;6196312;28;20045;-77
2023/09/28 12:06:26;;;;;;;6.18;2.22;;;33.50;51.30;;;;;;6196525;28;20422;-76
2023/09/28 12:09:31;;;;;;;3.28;2.00;;;33.40;51.00;;;;;;6196597;28;20061;-76
2023/09/28 12:12:32;;;;;;;6.25;2.17;;;33.20;51.00;;;;;;6196912;28;20046;-77
2023/09/28 12:15:34;;;;;;;3.33;1.90;;;32.90;51.20;;;;;;6196580;28;20496;-76
2023/09/28 12:18:37;;;;;;;3.65;2.45;;;32.80;51.20;;;;;;6196086;28;20523;-76
2023/09/28 12:21:40;;;;;;;4.25;3.17;;;32.80;51.00;;;;;;6196105;28;20043;-76
2023/09/28 12:24:42;;;;;;;2.70;2.28;;;32.60;51.10;;;;;;6196339;28;20042;-76
2023/09/28 12:27:44;;;;;;;3.65;2.10;;;32.60;51.10;;;;;;6196312;28;20049;-76
2023/09/28 12:30:46;;;;;;;4.05;1.98;;;32.80;50.70;;;;;;6196202;28;20052;-76
2023/09/28 12:33:49;;;;;;;5.57;2.38;;;33.00;50.20;;;;;;6195692;28;20053;-76
2023/09/28 12:36:51;;;;;;;5.38;2.65;;;33.00;50.30;;;;;;6196884;28;20053;-75
2023/09/28 12:39:53;;;;;;;8.15;2.30;;;33.00;50.10;;;;;;6196145;28;20050;-77
2023/09/28 12:42:55;;;;;;;6.57;2.08;;;33.10;49.90;;;;;;6196079;28;20054;-77
2023/09/28 12:45:57;;;;;;;3.80;3.00;;;33.30;49.40;;;;;;6195605;28;20046;-76
2023/09/28 12:49:01;;;;;;;2.60;1.90;;;33.40;49.00;;;;;;6193434;28;20167;-76
2023/09/28 12:52:04;;;;;;;3.13;2.35;;;33.40;48.80;;;;;;6209702;28;20065;-76
2023/09/28 12:55:07;;;;;;;3.22;2.00;;;33.20;48.80;;;;;;6195200;28;20073;-76
2023/09/28 12:58:10;;;;;;;3.63;1.83;;;33.10;48.70;;;;;;6195355;28;20639;-76
2023/09/28 13:01:12;;;;;;;4.15;3.05;;;33.00;48.90;;;;;;6195673;28;20060;-76
2023/09/28 13:04:15;;;;;;;3.78;2.75;;;33.00;49.10;;;;;;6195502;28;20053;-76
2023/09/28 13:07:18;;;;;;;2.97;2.00;;;33.10;48.90;;;;;;6195647;28;20050;-76
2023/09/28 13:10:23;;;;;;;4.70;1.90;;;33.10;48.80;;;;;;6196157;28;20043;-76
2023/09/28 13:13:25;;;;;;;3.85;2.38;;;33.00;48.60;;;;;;6199613;28;20423;-76
2023/09/28 13:16:28;;;;;;;3.47;2.03;;;33.00;48.70;;;;;;6200734;28;20072;-76
2023/09/28 13:19:31;;;;;;;4.78;1.92;;;33.20;49.20;;;;;;6195136;28;20046;-76
2023/09/28 13:22:33;;;;;;;3.10;2.03;;;33.30;48.20;;;;;;6200023;28;20492;-77
2023/09/28 13:25:35;;;;;;;4.25;2.20;;;33.30;48.30;;;;;;6198525;28;20511;-76
2023/09/28 13:28:37;;;;;;;3.92;2.03;;;33.20;48.10;;;;;;6199899;28;20106;-76
2023/09/28 13:31:42;;;;;;;6.28;2.85;;;33.10;48.10;;;;;;6199546;28;20216;-76
2023/09/28 13:34:46;;;;;;;5.10;2.22;;;33.20;48.10;;;;;;6199082;28;20145;-76
2023/09/28 13:37:49;;;;;;;4.22;2.22;;;33.00;47.80;;;;;;6198710;28;20146;-76
2023/09/28 13:40:50;;;;;;;3.63;1.88;;;33.00;47.80;;;;;;6199670;28;20129;-76
2023/09/28 13:43:52;;;;;;;3.92;2.00;;;33.00;47.50;;;;;;6199481;28;20046;-76
2023/09/28 13:46:55;;;;;;;2.83;2.08;;;32.90;46.90;;;;;;6199074;28;20506;-76
2023/09/28 13:49:58;;;;;;;3.53;2.67;;;32.70;46.60;;;;;;6197738;28;20050;-77
2023/09/28 13:53:01;;;;;;;3.60;1.92;;;32.20;46.40;;;;;;6191353;28;20039;-77
2023/09/28 13:56:03;;;;;;;4.95;2.30;;;31.80;47.10;;;;;;6199342;28;20054;-76
2023/09/28 13:59:09;;;;;;;1.83;1.30;;;31.60;47.80;;;;;;6199014;28;20196;-76
2023/09/28 14:02:13;;;;;;;2.38;1.77;;;31.70;48.00;;;;;;6198683;28;20066;-76
2023/09/28 14:05:16;;;;;;;2.78;2.13;;;31.90;47.60;;;;;;6198639;28;20046;-76
2023/09/28 14:08:18;;;;;;;4.18;1.70;;;32.30;47.00;;;;;;6199393;28;20054;-75
2023/09/28 14:11:21;;;;;;;7.15;3.08;;;32.50;46.90;;;;;;6193197;28;20045;-76
2023/09/28 14:14:24;;;;;;;2.67;2.17;;;32.80;46.90;;;;;;6198287;28;20047;-76
2023/09/28 14:17:26;;;;;;;4.05;2.15;;;32.90;46.60;;;;;;6199387;28;20112;-76
2023/09/28 14:20:29;;;;;;;4.95;1.98;;;33.10;46.20;;;;;;6198808;28;20594;-76
2023/09/28 14:23:31;;;;;;;4.00;1.88;;;33.10;46.00;;;;;;6198271;28;20054;-76
2023/09/28 14:26:33;;;;;;;3.45;1.48;;;33.20;46.10;;;;;;6197912;28;20051;-76
2023/09/28 14:29:37;;;;;;;4.95;3.67;;;33.20;45.80;;;;;;6198575;28;20038;-77
2023/09/28 14:32:39;;;;;;;4.25;2.33;;;33.20;45.60;;;;;;6198624;28;20129;-77
2023/09/28 14:35:42;;;;;;;5.82;3.63;;;33.00;45.90;;;;;;6197724;28;20042;-76
2023/09/28 14:38:44;;;;;;;5.38;2.05;;;32.70;46.10;;;;;;6197555;28;20050;-77
2023/09/28 14:41:46;;;;;;;3.53;2.10;;;32.40;46.30;;;;;;6197908;28;20125;-76
2023/09/28 14:44:47;;;;;;;2.85;1.80;;;32.20;46.70;;;;;;6198489;28;20050;-77
2023/09/28 14:47:49;;;;;;;1.95;1.52;;;31.90;46.70;;;;;;6198470;28;20045;-77
2023/09/28 14:50:52;;;;;;;3.05;2.45;;;31.60;46.80;;;;;;6197589;28;20124;-77
2023/09/28 14:53:54;;;;;;;4.70;2.33;;;31.50;47.00;;;;;;6197576;28;20050;-76
2023/09/28 14:56:56;;;;;;;2.22;1.35;;;31.30;47.40;;;;;;6198142;28;20073;-76
2023/09/28 14:59:57;;;;;;;3.72;2.38;;;31.00;47.70;;;;;;6198297;28;20074;-77
2023/09/28 15:03:00;;;;;;;3.55;2.40;;;30.80;47.80;;;;;;6197043;28;20042;-76
2023/09/28 15:06:03;;;;;;;7.07;1.92;;;30.50;47.80;;;;;;6192215;28;20431;-77
2023/09/28 15:09:05;;;;;;;4.72;2.80;;;30.10;48.40;;;;;;6196848;28;20420;-77
2023/09/28 15:12:07;;;;;;;2.90;1.88;;;29.80;48.30;;;;;;6197982;28;20050;-77
2023/09/28 15:15:09;;;;;;;3.22;1.80;;;29.50;48.30;;;;;;6195470;28;20053;-77
2023/09/28 15:18:11;;;;;;;3.80;1.80;;;29.20;49.00;;;;;;6196447;28;20043;-76
2023/09/28 15:21:15;;;;;;;3.15;1.98;;;28.80;49.60;;;;;;6201445;28;20588;-75
2023/09/28 15:24:17;;;;;;;3.55;2.17;;;28.40;50.10;;;;;;6198079;28;20519;-76
2023/09/28 15:27:19;;;;;;;5.88;2.33;;;28.10;50.70;;;;;;6198986;28;20050;-76
2023/09/28 15:30:21;;;;;;;3.05;2.72;;;27.90;51.00;;;;;;6199670;28;20049;-78
2023/09/28 15:33:23;;;;;;;5.55;2.30;;;27.60;51.50;;;;;;6198713;28;20042;-76
2023/09/28 15:36:26;;;;;;;3.80;2.25;;;27.30;51.90;;;;;;6198844;28;20045;-76
2023/09/28 15:39:28;;;;;;;6.47;2.83;;;27.10;52.40;;;;;;6198642;28;20522;-77
2023/09/28 15:42:30;;;;;;;5.18;2.55;;;26.90;52.80;;;;;;6198195;28;20233;-76
2023/09/28 15:45:32;;;;;;;6.05;2.47;;;26.80;53.40;;;;;;6197224;28;20038;-76
2023/09/28 15:48:34;;;;;;;3.15;2.05;;;26.50;53.90;;;;;;6194325;28;20046;-78
2023/09/28 15:51:37;;;;;;;3.88;2.05;;;26.40;54.30;;;;;;6195785;28;20557;-76